sensor_id;sensor_type;location;lat;lon;timestamp;pressure;altitude;pressure_sealevel;temperature;humidity
62632;BME280;48703;51.248;-0.546;2023-02-15T00:02:50;102021;;;4.26;86.72
62632;BME280;48703;51.248;-0.546;2023-02-15T00:05:51;102018;;;4.26;86.67
62632;BME280;48703;51.248;-0.546;2023-02-15T00:08:54;102012;;;4.26;86.39
62632;BME280;48703;51.248;-0.546;2023-02-15T00:11:55;102010;;;4.23;86.31
62632;BME280;48703;51.248;-0.546;2023-02-15T00:14:57;102011;;;4.23;86.40
62632;BME280;48703;51.248;-0.546;2023-02-15T00:17:59;102010;;;4.21;86.23
62632;BME280;48703;51.248;-0.546;2023-02-15T00:21:03;102011;;;4.18;86.33
62632;BME280;48703;51.248;-0.546;2023-02-15T00:24:04;102009;;;4.16;86.52
62632;BME280;48703;51.248;-0.546;2023-02-15T00:27:05;102006;;;4.10;86.15
62632;BME280;48703;51.248;-0.546;2023-02-15T00:30:07;101994;;;4.00;86.03
62632;BME280;48703;51.248;-0.546;2023-02-15T00:33:09;101992;;;3.93;86.12
62632;BME280;48703;51.248;-0.546;2023-02-15T00:36:11;101988;;;3.89;86.56
62632;BME280;48703;51.248;-0.546;2023-02-15T00:39:13;101987;;;3.89;86.78
62632;BME280;48703;51.248;-0.546;2023-02-15T00:42:15;101987;;;3.88;87.10
62632;BME280;48703;51.248;-0.546;2023-02-15T00:45:17;101986;;;3.90;87.53
62632;BME280;48703;51.248;-0.546;2023-02-15T00:48:19;101983;;;3.91;87.56
62632;BME280;48703;51.248;-0.546;2023-02-15T00:51:20;101983;;;3.96;87.98
62632;BME280;48703;51.248;-0.546;2023-02-15T00:54:22;101981;;;4.00;87.91
62632;BME280;48703;51.248;-0.546;2023-02-15T00:57:24;101976;;;4.02;88.15
62632;BME280;48703;51.248;-0.546;2023-02-15T01:00:26;101970;;;4.02;87.79
62632;BME280;48703;51.248;-0.546;2023-02-15T01:03:28;101966;;;4.02;87.78
62632;BME280;48703;51.248;-0.546;2023-02-15T01:06:30;101962;;;4.05;87.97
62632;BME280;48703;51.248;-0.546;2023-02-15T01:09:32;101952;;;4.09;88.10
62632;BME280;48703;51.248;-0.546;2023-02-15T01:12:34;101944;;;4.12;88.17
62632;BME280;48703;51.248;-0.546;2023-02-15T01:15:36;101936;;;4.19;88.12
62632;BME280;48703;51.248;-0.546;2023-02-15T01:18:38;101930;;;4.24;88.13
62632;BME280;48703;51.248;-0.546;2023-02-15T01:21:40;101918;;;4.30;88.07
62632;BME280;48703;51.248;-0.546;2023-02-15T01:24:42;101910;;;4.36;87.98
62632;BME280;48703;51.248;-0.546;2023-02-15T01:27:43;101912;;;4.40;87.77
62632;BME280;48703;51.248;-0.546;2023-02-15T01:30:45;101911;;;4.44;87.87
62632;BME280;48703;51.248;-0.546;2023-02-15T01:33:48;101910;;;4.47;87.79
62632;BME280;48703;51.248;-0.546;2023-02-15T01:36:49;101903;;;4.50;87.72
62632;BME280;48703;51.248;-0.546;2023-02-15T01:39:51;101898;;;4.53;87.75
62632;BME280;48703;51.248;-0.546;2023-02-15T01:42:54;101896;;;4.53;87.75
62632;BME280;48703;51.248;-0.546;2023-02-15T01:45:55;101895;;;4.53;87.81
62632;BME280;48703;51.248;-0.546;2023-02-15T01:48:59;101898;;;4.53;87.80
62632;BME280;48703;51.248;-0.546;2023-02-15T01:51:59;101897;;;4.52;87.98
62632;BME280;48703;51.248;-0.546;2023-02-15T01:55:01;101897;;;4.52;87.87
62632;BME280;48703;51.248;-0.546;2023-02-15T01:58:03;101898;;;4.53;87.96
62632;BME280;48703;51.248;-0.546;2023-02-15T02:01:05;101899;;;4.55;87.88
62632;BME280;48703;51.248;-0.546;2023-02-15T02:04:09;101894;;;4.56;87.95
62632;BME280;48703;51.248;-0.546;2023-02-15T02:07:09;101892;;;4.58;87.82
62632;BME280;48703;51.248;-0.546;2023-02-15T02:10:12;101892;;;4.59;87.90
62632;BME280;48703;51.248;-0.546;2023-02-15T02:13:12;101894;;;4.59;87.83
62632;BME280;48703;51.248;-0.546;2023-02-15T02:16:16;101896;;;4.58;87.72
62632;BME280;48703;51.248;-0.546;2023-02-15T02:19:26;101891;;;4.56;87.72
62632;BME280;48703;51.248;-0.546;2023-02-15T02:22:31;101882;;;4.54;87.74
62632;BME280;48703;51.248;-0.546;2023-02-15T02:25:26;101877;;;4.51;87.85
62632;BME280;48703;51.248;-0.546;2023-02-15T02:28:29;101875;;;4.51;87.93
62632;BME280;48703;51.248;-0.546;2023-02-15T02:31:29;101876;;;4.50;88.28
62632;BME280;48703;51.248;-0.546;2023-02-15T02:34:27;101879;;;4.52;88.37
62632;BME280;48703;51.248;-0.546;2023-02-15T02:37:29;101877;;;4.53;88.72
62632;BME280;48703;51.248;-0.546;2023-02-15T02:40:31;101873;;;4.56;88.98
62632;BME280;48703;51.248;-0.546;2023-02-15T02:43:32;101867;;;4.57;88.81
62632;BME280;48703;51.248;-0.546;2023-02-15T02:46:35;101866;;;4.59;88.97
62632;BME280;48703;51.248;-0.546;2023-02-15T02:49:37;101860;;;4.61;89.09
62632;BME280;48703;51.248;-0.546;2023-02-15T02:52:39;101857;;;4.64;89.20
62632;BME280;48703;51.248;-0.546;2023-02-15T02:55:40;101853;;;4.66;89.31
62632;BME280;48703;51.248;-0.546;2023-02-15T02:58:42;101845;;;4.68;89.37
62632;BME280;48703;51.248;-0.546;2023-02-15T03:01:44;101841;;;4.71;89.40
62632;BME280;48703;51.248;-0.546;2023-02-15T03:04:46;101838;;;4.72;89.39
62632;BME280;48703;51.248;-0.546;2023-02-15T03:07:49;101838;;;4.74;89.29
62632;BME280;48703;51.248;-0.546;2023-02-15T03:10:51;101832;;;4.74;89.44
62632;BME280;48703;51.248;-0.546;2023-02-15T03:13:51;101830;;;4.75;89.41
62632;BME280;48703;51.248;-0.546;2023-02-15T03:16:53;101831;;;4.76;89.65
62632;BME280;48703;51.248;-0.546;2023-02-15T03:19:55;101824;;;4.77;89.59
62632;BME280;48703;51.248;-0.546;2023-02-15T03:22:58;101816;;;4.78;89.64
62632;BME280;48703;51.248;-0.546;2023-02-15T03:26:00;101811;;;4.79;89.73
62632;BME280;48703;51.248;-0.546;2023-02-15T03:29:01;101811;;;4.81;89.95
62632;BME280;48703;51.248;-0.546;2023-02-15T03:32:03;101806;;;4.83;90.11
62632;BME280;48703;51.248;-0.546;2023-02-15T03:35:05;101800;;;4.85;90.28
62632;BME280;48703;51.248;-0.546;2023-02-15T03:38:07;101799;;;4.86;90.32
62632;BME280;48703;51.248;-0.546;2023-02-15T03:41:08;101796;;;4.88;90.29
62632;BME280;48703;51.248;-0.546;2023-02-15T03:44:11;101791;;;4.90;90.37
62632;BME280;48703;51.248;-0.546;2023-02-15T03:47:13;101789;;;4.92;90.38
62632;BME280;48703;51.248;-0.546;2023-02-15T03:50:15;101784;;;4.93;90.45
62632;BME280;48703;51.248;-0.546;2023-02-15T03:53:16;101782;;;4.93;90.61
62632;BME280;48703;51.248;-0.546;2023-02-15T03:56:18;101775;;;4.96;90.81
62632;BME280;48703;51.248;-0.546;2023-02-15T03:59:20;101766;;;4.99;91.13
62632;BME280;48703;51.248;-0.546;2023-02-15T04:02:23;101760;;;5.01;91.33
62632;BME280;48703;51.248;-0.546;2023-02-15T04:05:24;101758;;;5.05;91.15
62632;BME280;48703;51.248;-0.546;2023-02-15T04:08:26;101762;;;5.08;91.15
62632;BME280;48703;51.248;-0.546;2023-02-15T04:11:28;101759;;;5.10;91.31
62632;BME280;48703;51.248;-0.546;2023-02-15T04:14:30;101763;;;5.14;91.57
62632;BME280;48703;51.248;-0.546;2023-02-15T04:17:31;101764;;;5.17;91.40
62632;BME280;48703;51.248;-0.546;2023-02-15T04:20:33;101764;;;5.19;91.44
62632;BME280;48703;51.248;-0.546;2023-02-15T04:23:35;101762;;;5.22;91.50
62632;BME280;48703;51.248;-0.546;2023-02-15T04:26:37;101762;;;5.25;91.49
62632;BME280;48703;51.248;-0.546;2023-02-15T04:29:39;101760;;;5.27;91.52
62632;BME280;48703;51.248;-0.546;2023-02-15T04:32:41;101754;;;5.29;91.76
62632;BME280;48703;51.248;-0.546;2023-02-15T04:35:43;101749;;;5.31;91.76
62632;BME280;48703;51.248;-0.546;2023-02-15T04:38:45;101750;;;5.33;91.79
62632;BME280;48703;51.248;-0.546;2023-02-15T04:41:47;101753;;;5.36;91.78
62632;BME280;48703;51.248;-0.546;2023-02-15T04:44:49;101750;;;5.38;91.89
62632;BME280;48703;51.248;-0.546;2023-02-15T04:47:51;101749;;;5.39;91.84
62632;BME280;48703;51.248;-0.546;2023-02-15T04:50:53;101749;;;5.42;91.88
62632;BME280;48703;51.248;-0.546;2023-02-15T04:53:55;101751;;;5.44;91.88
62632;BME280;48703;51.248;-0.546;2023-02-15T04:56:56;101748;;;5.45;91.91
62632;BME280;48703;51.248;-0.546;2023-02-15T04:59:58;101744;;;5.48;92.01
62632;BME280;48703;51.248;-0.546;2023-02-15T05:03:00;101738;;;5.50;92.05
62632;BME280;48703;51.248;-0.546;2023-02-15T05:06:02;101732;;;5.52;92.07
62632;BME280;48703;51.248;-0.546;2023-02-15T05:09:04;101731;;;5.55;92.18
62632;BME280;48703;51.248;-0.546;2023-02-15T05:12:06;101731;;;5.57;92.10
62632;BME280;48703;51.248;-0.546;2023-02-15T05:15:08;101725;;;5.59;92.01
62632;BME280;48703;51.248;-0.546;2023-02-15T05:18:10;101721;;;5.60;92.08
62632;BME280;48703;51.248;-0.546;2023-02-15T05:21:12;101719;;;5.62;92.03
62632;BME280;48703;51.248;-0.546;2023-02-15T05:24:14;101719;;;5.64;91.99
62632;BME280;48703;51.248;-0.546;2023-02-15T05:27:16;101718;;;5.66;91.95
62632;BME280;48703;51.248;-0.546;2023-02-15T05:30:18;101716;;;5.66;91.80
62632;BME280;48703;51.248;-0.546;2023-02-15T05:33:20;101712;;;5.67;91.86
62632;BME280;48703;51.248;-0.546;2023-02-15T05:36:21;101713;;;5.68;91.72
62632;BME280;48703;51.248;-0.546;2023-02-15T05:39:23;101707;;;5.68;91.69
62632;BME280;48703;51.248;-0.546;2023-02-15T05:42:25;101708;;;5.68;91.69
62632;BME280;48703;51.248;-0.546;2023-02-15T05:45:27;101704;;;5.69;91.54
62632;BME280;48703;51.248;-0.546;2023-02-15T05:48:29;101708;;;5.69;91.43
62632;BME280;48703;51.248;-0.546;2023-02-15T05:51:31;101708;;;5.69;91.39
62632;BME280;48703;51.248;-0.546;2023-02-15T05:54:33;101706;;;5.69;91.24
62632;BME280;48703;51.248;-0.546;2023-02-15T05:57:35;101705;;;5.69;91.12
62632;BME280;48703;51.248;-0.546;2023-02-15T06:00:37;101704;;;5.70;91.09
62632;BME280;48703;51.248;-0.546;2023-02-15T06:03:39;101706;;;5.70;91.12
62632;BME280;48703;51.248;-0.546;2023-02-15T06:06:41;101706;;;5.69;91.02
62632;BME280;48703;51.248;-0.546;2023-02-15T06:09:43;101702;;;5.69;91.00
62632;BME280;48703;51.248;-0.546;2023-02-15T06:12:45;101702;;;5.69;91.19
62632;BME280;48703;51.248;-0.546;2023-02-15T06:15:47;101699;;;5.70;91.18
62632;BME280;48703;51.248;-0.546;2023-02-15T06:18:48;101697;;;5.70;91.22
62632;BME280;48703;51.248;-0.546;2023-02-15T06:21:50;101704;;;5.71;91.27
62632;BME280;48703;51.248;-0.546;2023-02-15T06:24:52;101703;;;5.72;91.22
62632;BME280;48703;51.248;-0.546;2023-02-15T06:27:54;101703;;;5.73;91.09
62632;BME280;48703;51.248;-0.546;2023-02-15T06:30:56;101706;;;5.73;90.99
62632;BME280;48703;51.248;-0.546;2023-02-15T06:33:58;101711;;;5.72;90.98
62632;BME280;48703;51.248;-0.546;2023-02-15T06:37:00;101717;;;5.72;90.84
62632;BME280;48703;51.248;-0.546;2023-02-15T06:40:02;101719;;;5.72;90.86
62632;BME280;48703;51.248;-0.546;2023-02-15T06:43:04;101715;;;5.71;90.73
62632;BME280;48703;51.248;-0.546;2023-02-15T06:46:06;101716;;;5.70;90.73
62632;BME280;48703;51.248;-0.546;2023-02-15T06:49:08;101721;;;5.68;90.65
62632;BME280;48703;51.248;-0.546;2023-02-15T06:52:10;101721;;;5.68;90.65
62632;BME280;48703;51.248;-0.546;2023-02-15T06:55:12;101724;;;5.67;90.58
62632;BME280;48703;51.248;-0.546;2023-02-15T06:58:14;101724;;;5.66;90.52
62632;BME280;48703;51.248;-0.546;2023-02-15T07:01:15;101723;;;5.63;90.51
62632;BME280;48703;51.248;-0.546;2023-02-15T07:04:17;101726;;;5.61;90.46
62632;BME280;48703;51.248;-0.546;2023-02-15T07:07:19;101732;;;5.59;90.55
62632;BME280;48703;51.248;-0.546;2023-02-15T07:10:21;101738;;;5.57;90.66
62632;BME280;48703;51.248;-0.546;2023-02-15T07:13:23;101738;;;5.56;90.62
62632;BME280;48703;51.248;-0.546;2023-02-15T07:16:25;101742;;;5.55;90.58
62632;BME280;48703;51.248;-0.546;2023-02-15T07:19:27;101747;;;5.52;90.53
62632;BME280;48703;51.248;-0.546;2023-02-15T07:22:29;101745;;;5.50;90.59
62632;BME280;48703;51.248;-0.546;2023-02-15T07:25:31;101745;;;5.49;90.76
62632;BME280;48703;51.248;-0.546;2023-02-15T07:28:33;101745;;;5.48;90.67
62632;BME280;48703;51.248;-0.546;2023-02-15T07:31:35;101746;;;5.47;90.83
62632;BME280;48703;51.248;-0.546;2023-02-15T07:34:37;101749;;;5.47;90.78
62632;BME280;48703;51.248;-0.546;2023-02-15T07:37:39;101754;;;5.45;90.92
62632;BME280;48703;51.248;-0.546;2023-02-15T07:40:41;101757;;;5.43;90.95
62632;BME280;48703;51.248;-0.546;2023-02-15T07:43:43;101757;;;5.43;90.93
62632;BME280;48703;51.248;-0.546;2023-02-15T07:46:44;101763;;;5.43;90.96
62632;BME280;48703;51.248;-0.546;2023-02-15T07:49:46;101767;;;5.42;91.03
62632;BME280;48703;51.248;-0.546;2023-02-15T07:52:48;101763;;;5.40;90.92
62632;BME280;48703;51.248;-0.546;2023-02-15T07:55:50;101762;;;5.39;90.97
62632;BME280;48703;51.248;-0.546;2023-02-15T07:58:52;101758;;;5.39;91.04
62632;BME280;48703;51.248;-0.546;2023-02-15T08:01:54;101754;;;5.40;91.11
62632;BME280;48703;51.248;-0.546;2023-02-15T08:04:56;101750;;;5.41;91.27
62632;BME280;48703;51.248;-0.546;2023-02-15T08:07:58;101751;;;5.42;91.27
62632;BME280;48703;51.248;-0.546;2023-02-15T08:11:01;101753;;;5.43;91.24
62632;BME280;48703;51.248;-0.546;2023-02-15T08:14:03;101752;;;5.43;91.30
62632;BME280;48703;51.248;-0.546;2023-02-15T08:17:04;101756;;;5.44;91.32
62632;BME280;48703;51.248;-0.546;2023-02-15T08:20:06;101757;;;5.45;91.31
62632;BME280;48703;51.248;-0.546;2023-02-15T08:23:08;101758;;;5.46;91.29
62632;BME280;48703;51.248;-0.546;2023-02-15T08:26:09;101758;;;5.47;91.53
62632;BME280;48703;51.248;-0.546;2023-02-15T08:29:12;101752;;;5.48;91.30
62632;BME280;48703;51.248;-0.546;2023-02-15T08:32:13;101754;;;5.51;91.32
62632;BME280;48703;51.248;-0.546;2023-02-15T08:35:15;101751;;;5.53;91.30
62632;BME280;48703;51.248;-0.546;2023-02-15T08:38:17;101746;;;5.56;91.39
62632;BME280;48703;51.248;-0.546;2023-02-15T08:41:20;101740;;;5.60;91.29
62632;BME280;48703;51.248;-0.546;2023-02-15T08:44:21;101734;;;5.63;91.32
62632;BME280;48703;51.248;-0.546;2023-02-15T08:47:23;101734;;;5.66;91.24
62632;BME280;48703;51.248;-0.546;2023-02-15T08:50:25;101725;;;5.68;91.19
62632;BME280;48703;51.248;-0.546;2023-02-15T08:53:27;101720;;;5.72;91.20
62632;BME280;48703;51.248;-0.546;2023-02-15T08:56:29;101717;;;5.76;91.10
62632;BME280;48703;51.248;-0.546;2023-02-15T08:59:31;101719;;;5.79;91.06
62632;BME280;48703;51.248;-0.546;2023-02-15T09:02:33;101723;;;5.83;91.02
62632;BME280;48703;51.248;-0.546;2023-02-15T09:05:34;101728;;;5.88;91.06
62632;BME280;48703;51.248;-0.546;2023-02-15T09:08:37;101724;;;5.93;90.98
62632;BME280;48703;51.248;-0.546;2023-02-15T09:11:40;101730;;;5.98;91.01
62632;BME280;48703;51.248;-0.546;2023-02-15T09:14:40;101733;;;6.04;90.97
62632;BME280;48703;51.248;-0.546;2023-02-15T09:17:42;101732;;;6.09;90.99
62632;BME280;48703;51.248;-0.546;2023-02-15T09:20:44;101726;;;6.15;90.93
62632;BME280;48703;51.248;-0.546;2023-02-15T09:23:47;101728;;;6.22;90.87
62632;BME280;48703;51.248;-0.546;2023-02-15T09:26:48;101727;;;6.28;90.80
62632;BME280;48703;51.248;-0.546;2023-02-15T09:29:50;101735;;;6.35;90.78
62632;BME280;48703;51.248;-0.546;2023-02-15T09:32:52;101738;;;6.41;90.61
62632;BME280;48703;51.248;-0.546;2023-02-15T09:35:54;101741;;;6.46;90.50
62632;BME280;48703;51.248;-0.546;2023-02-15T09:38:56;101742;;;6.50;90.24
62632;BME280;48703;51.248;-0.546;2023-02-15T09:42:10;101740;;;6.54;90.20
62632;BME280;48703;51.248;-0.546;2023-02-15T09:45:04;101737;;;6.57;90.08
62632;BME280;48703;51.248;-0.546;2023-02-15T09:48:05;101733;;;6.60;89.87
62632;BME280;48703;51.248;-0.546;2023-02-15T09:51:08;101731;;;6.64;89.92
62632;BME280;48703;51.248;-0.546;2023-02-15T09:54:09;101730;;;6.69;89.67
62632;BME280;48703;51.248;-0.546;2023-02-15T09:57:09;101734;;;6.73;89.56
62632;BME280;48703;51.248;-0.546;2023-02-15T10:00:17;101738;;;6.78;89.48
62632;BME280;48703;51.248;-0.546;2023-02-15T10:03:15;101744;;;6.83;89.39
62632;BME280;48703;51.248;-0.546;2023-02-15T10:06:21;101741;;;6.87;89.20
62632;BME280;48703;51.248;-0.546;2023-02-15T10:09:19;101737;;;6.92;89.20
62632;BME280;48703;51.248;-0.546;2023-02-15T10:12:22;101734;;;6.98;88.97
62632;BME280;48703;51.248;-0.546;2023-02-15T10:15:22;101739;;;7.03;88.95
62632;BME280;48703;51.248;-0.546;2023-02-15T10:18:25;101748;;;7.10;88.77
62632;BME280;48703;51.248;-0.546;2023-02-15T10:21:26;101752;;;7.17;88.44
62632;BME280;48703;51.248;-0.546;2023-02-15T10:24:44;101751;;;7.21;88.47
62632;BME280;48703;51.248;-0.546;2023-02-15T10:27:27;101756;;;7.27;88.54
62632;BME280;48703;51.248;-0.546;2023-02-15T10:30:31;101760;;;7.32;88.14
62632;BME280;48703;51.248;-0.546;2023-02-15T10:33:35;101757;;;7.37;88.31
62632;BME280;48703;51.248;-0.546;2023-02-15T10:36:36;101750;;;7.41;88.39
62632;BME280;48703;51.248;-0.546;2023-02-15T10:39:37;101741;;;7.46;88.28
62632;BME280;48703;51.248;-0.546;2023-02-15T10:42:39;101738;;;7.53;88.20
62632;BME280;48703;51.248;-0.546;2023-02-15T10:45:40;101737;;;7.59;88.03
62632;BME280;48703;51.248;-0.546;2023-02-15T10:48:46;101730;;;7.65;87.92
62632;BME280;48703;51.248;-0.546;2023-02-15T10:51:44;101730;;;7.70;87.73
62632;BME280;48703;51.248;-0.546;2023-02-15T10:54:45;101731;;;7.78;87.99
62632;BME280;48703;51.248;-0.546;2023-02-15T10:57:48;101727;;;7.84;87.75
62632;BME280;48703;51.248;-0.546;2023-02-15T11:00:49;101722;;;7.93;87.61
62632;BME280;48703;51.248;-0.546;2023-02-15T11:03:54;101717;;;7.98;87.32
62632;BME280;48703;51.248;-0.546;2023-02-15T11:06:53;101718;;;8.04;87.44
62632;BME280;48703;51.248;-0.546;2023-02-15T11:09:55;101717;;;8.12;87.12
62632;BME280;48703;51.248;-0.546;2023-02-15T11:12:56;101714;;;8.17;86.52
62632;BME280;48703;51.248;-0.546;2023-02-15T11:15:59;101706;;;8.23;86.60
62632;BME280;48703;51.248;-0.546;2023-02-15T11:19:00;101697;;;8.27;86.42
62632;BME280;48703;51.248;-0.546;2023-02-15T11:22:02;101691;;;8.32;86.09
62632;BME280;48703;51.248;-0.546;2023-02-15T11:25:04;101692;;;8.39;85.86
62632;BME280;48703;51.248;-0.546;2023-02-15T11:28:06;101689;;;8.45;85.95
62632;BME280;48703;51.248;-0.546;2023-02-15T11:31:11;101684;;;8.49;85.76
62632;BME280;48703;51.248;-0.546;2023-02-15T11:34:12;101683;;;8.55;85.88
62632;BME280;48703;51.248;-0.546;2023-02-15T11:37:12;101686;;;8.64;85.81
62632;BME280;48703;51.248;-0.546;2023-02-15T11:40:16;101685;;;8.70;85.57
62632;BME280;48703;51.248;-0.546;2023-02-15T11:43:16;101688;;;8.75;85.62
62632;BME280;48703;51.248;-0.546;2023-02-15T11:46:17;101684;;;8.81;85.76
62632;BME280;48703;51.248;-0.546;2023-02-15T11:49:21;101685;;;8.90;85.62
62632;BME280;48703;51.248;-0.546;2023-02-15T11:52:21;101693;;;9.02;85.78
62632;BME280;48703;51.248;-0.546;2023-02-15T11:55:22;101697;;;9.10;85.34
62632;BME280;48703;51.248;-0.546;2023-02-15T11:58:26;101694;;;9.17;85.00
62632;BME280;48703;51.248;-0.546;2023-02-15T12:01:28;101688;;;9.24;84.81
62632;BME280;48703;51.248;-0.546;2023-02-15T12:04:29;101671;;;9.32;84.47
62632;BME280;48703;51.248;-0.546;2023-02-15T12:07:32;101665;;;9.41;84.32
62632;BME280;48703;51.248;-0.546;2023-02-15T12:10:33;101664;;;9.49;83.89
62632;BME280;48703;51.248;-0.546;2023-02-15T12:13:34;101659;;;9.59;83.91
62632;BME280;48703;51.248;-0.546;2023-02-15T12:16:40;101656;;;9.68;83.46
62632;BME280;48703;51.248;-0.546;2023-02-15T12:19:39;101652;;;9.78;82.62
62632;BME280;48703;51.248;-0.546;2023-02-15T12:22:45;101652;;;9.89;83.08
62632;BME280;48703;51.248;-0.546;2023-02-15T12:25:42;101652;;;9.97;82.25
62632;BME280;48703;51.248;-0.546;2023-02-15T12:28:44;101656;;;10.04;81.95
62632;BME280;48703;51.248;-0.546;2023-02-15T12:31:46;101656;;;10.13;81.39
62632;BME280;48703;51.248;-0.546;2023-02-15T12:34:48;101658;;;10.19;81.35
62632;BME280;48703;51.248;-0.546;2023-02-15T12:37:52;101660;;;10.30;81.13
62632;BME280;48703;51.248;-0.546;2023-02-15T12:40:56;101662;;;10.38;80.60
62632;BME280;48703;51.248;-0.546;2023-02-15T12:44:02;101659;;;10.48;80.61
62632;BME280;48703;51.248;-0.546;2023-02-15T12:46:56;101652;;;10.62;79.08
62632;BME280;48703;51.248;-0.546;2023-02-15T12:50:07;101647;;;10.70;78.48
62632;BME280;48703;51.248;-0.546;2023-02-15T12:53:05;101645;;;10.78;78.67
62632;BME280;48703;51.248;-0.546;2023-02-15T12:56:02;101640;;;10.84;79.06
62632;BME280;48703;51.248;-0.546;2023-02-15T12:59:04;101637;;;10.89;78.52
62632;BME280;48703;51.248;-0.546;2023-02-15T13:02:05;101633;;;10.95;77.66
62632;BME280;48703;51.248;-0.546;2023-02-15T13:05:13;101630;;;11.03;77.26
62632;BME280;48703;51.248;-0.546;2023-02-15T13:08:09;101628;;;11.13;76.87
62632;BME280;48703;51.248;-0.546;2023-02-15T13:11:11;101627;;;11.19;77.17
62632;BME280;48703;51.248;-0.546;2023-02-15T13:14:16;101627;;;11.25;76.75
62632;BME280;48703;51.248;-0.546;2023-02-15T13:17:15;101633;;;11.32;76.77
62632;BME280;48703;51.248;-0.546;2023-02-15T13:20:17;101629;;;11.37;77.11
62632;BME280;48703;51.248;-0.546;2023-02-15T13:23:22;101625;;;11.43;76.62
62632;BME280;48703;51.248;-0.546;2023-02-15T13:26:21;101635;;;11.53;74.90
62632;BME280;48703;51.248;-0.546;2023-02-15T13:29:23;101628;;;11.61;76.56
62632;BME280;48703;51.248;-0.546;2023-02-15T13:32:26;101621;;;11.65;75.77
62632;BME280;48703;51.248;-0.546;2023-02-15T13:35:27;101616;;;11.73;74.34
62632;BME280;48703;51.248;-0.546;2023-02-15T13:37:41;101614;;;11.78;74.88
62632;BME280;48703;51.248;-0.546;2023-02-15T13:40:31;101606;;;11.82;75.12
62632;BME280;48703;51.248;-0.546;2023-02-15T13:43:37;101603;;;11.91;74.91
62632;BME280;48703;51.248;-0.546;2023-02-15T13:46:42;101599;;;12.00;74.08
62632;BME280;48703;51.248;-0.546;2023-02-15T13:49:41;101590;;;12.06;72.35
62632;BME280;48703;51.248;-0.546;2023-02-15T13:52:39;101586;;;12.14;71.79
62632;BME280;48703;51.248;-0.546;2023-02-15T13:55:40;101584;;;12.20;71.75
62632;BME280;48703;51.248;-0.546;2023-02-15T13:58:50;101587;;;12.26;72.40
62632;BME280;48703;51.248;-0.546;2023-02-15T14:01:44;101583;;;12.33;72.44
62632;BME280;48703;51.248;-0.546;2023-02-15T14:05:05;101580;;;12.38;72.35
62632;BME280;48703;51.248;-0.546;2023-02-15T14:07:52;101575;;;12.42;72.38
62632;BME280;48703;51.248;-0.546;2023-02-15T14:10:51;101572;;;12.49;72.20
62632;BME280;48703;51.248;-0.546;2023-02-15T14:13:54;101567;;;12.56;72.32
62632;BME280;48703;51.248;-0.546;2023-02-15T14:16:54;101561;;;12.61;71.59
62632;BME280;48703;51.248;-0.546;2023-02-15T14:19:56;101558;;;12.64;70.41
62632;BME280;48703;51.248;-0.546;2023-02-15T14:22:59;101560;;;12.69;71.16
62632;BME280;48703;51.248;-0.546;2023-02-15T14:25:59;101557;;;12.74;71.02
62632;BME280;48703;51.248;-0.546;2023-02-15T14:29:02;101564;;;12.78;70.72
62632;BME280;48703;51.248;-0.546;2023-02-15T14:32:04;101562;;;12.82;71.04
62632;BME280;48703;51.248;-0.546;2023-02-15T14:35:05;101567;;;12.86;69.84
62632;BME280;48703;51.248;-0.546;2023-02-15T14:38:09;101568;;;12.91;70.16
62632;BME280;48703;51.248;-0.546;2023-02-15T14:41:09;101571;;;12.96;70.00
62632;BME280;48703;51.248;-0.546;2023-02-15T14:44:12;101571;;;13.00;69.09
62632;BME280;48703;51.248;-0.546;2023-02-15T14:47:13;101572;;;13.01;68.98
62632;BME280;48703;51.248;-0.546;2023-02-15T14:50:46;101568;;;13.01;67.04
62632;BME280;48703;51.248;-0.546;2023-02-15T14:53:17;101571;;;13.02;68.72
62632;BME280;48703;51.248;-0.546;2023-02-15T14:56:19;101574;;;13.05;69.14
62632;BME280;48703;51.248;-0.546;2023-02-15T14:59:20;101577;;;13.09;68.48
62632;BME280;48703;51.248;-0.546;2023-02-15T15:02:22;101580;;;13.11;68.28
62632;BME280;48703;51.248;-0.546;2023-02-15T15:05:24;101576;;;13.13;68.70
62632;BME280;48703;51.248;-0.546;2023-02-15T15:08:27;101575;;;13.15;67.74
62632;BME280;48703;51.248;-0.546;2023-02-15T15:12:46;101576;;;13.17;67.01
62632;BME280;48703;51.248;-0.546;2023-02-15T15:14:37;101575;;;13.16;66.12
62632;BME280;48703;51.248;-0.546;2023-02-15T15:18:03;101579;;;13.16;66.81
62632;BME280;48703;51.248;-0.546;2023-02-15T15:20:37;101583;;;13.14;66.24
62632;BME280;48703;51.248;-0.546;2023-02-15T15:23:42;101584;;;13.14;67.65
62632;BME280;48703;51.248;-0.546;2023-02-15T15:26:37;101585;;;13.12;66.78
62632;BME280;48703;51.248;-0.546;2023-02-15T15:29:39;101583;;;13.09;66.56
62632;BME280;48703;51.248;-0.546;2023-02-15T15:32:41;101581;;;13.08;67.84
62632;BME280;48703;51.248;-0.546;2023-02-15T15:35:44;101576;;;13.06;65.98
62632;BME280;48703;51.248;-0.546;2023-02-15T15:38:45;101573;;;13.04;67.59
62632;BME280;48703;51.248;-0.546;2023-02-15T15:41:47;101572;;;13.02;67.77
62632;BME280;48703;51.248;-0.546;2023-02-15T15:45:08;101575;;;13.00;66.85
62632;BME280;48703;51.248;-0.546;2023-02-15T15:47:54;101579;;;13.00;68.60
62632;BME280;48703;51.248;-0.546;2023-02-15T15:50:52;101583;;;12.97;67.00
62632;BME280;48703;51.248;-0.546;2023-02-15T15:53:54;101585;;;12.94;67.55
62632;BME280;48703;51.248;-0.546;2023-02-15T15:56:56;101583;;;12.90;68.57
62632;BME280;48703;51.248;-0.546;2023-02-15T15:59:58;101584;;;12.85;67.84
62632;BME280;48703;51.248;-0.546;2023-02-15T16:03:00;101587;;;12.79;68.01
62632;BME280;48703;51.248;-0.546;2023-02-15T16:06:02;101589;;;12.74;68.88
62632;BME280;48703;51.248;-0.546;2023-02-15T16:09:12;101588;;;12.70;68.73
62632;BME280;48703;51.248;-0.546;2023-02-15T16:12:10;101589;;;12.64;68.94
62632;BME280;48703;51.248;-0.546;2023-02-15T16:15:13;101589;;;12.59;68.79
62632;BME280;48703;51.248;-0.546;2023-02-15T16:18:11;101588;;;12.53;68.86
62632;BME280;48703;51.248;-0.546;2023-02-15T16:21:14;101588;;;12.46;68.33
62632;BME280;48703;51.248;-0.546;2023-02-15T16:24:17;101588;;;12.42;68.56
62632;BME280;48703;51.248;-0.546;2023-02-15T16:27:26;101591;;;12.37;69.62